createdAt,value
2017-07-10T00:02:06.638Z,10.13
2017-07-10T00:04:41.051Z,7.63
2017-07-10T00:07:15.047Z,10.23
2017-07-10T00:09:49.670Z,7.40
2017-07-10T00:12:23.195Z,8.77
2017-07-10T00:14:56.970Z,20.10
2017-07-10T00:17:30.674Z,8.63
2017-07-10T00:20:04.277Z,16.20
2017-07-10T00:22:37.846Z,10.07
2017-07-10T00:25:11.447Z,9.20
2017-07-10T00:27:45.284Z,11.03
2017-07-10T00:30:19.803Z,7.50
2017-07-10T00:32:53.691Z,8.30
2017-07-10T00:35:27.406Z,10.30
2017-07-10T00:38:01.110Z,10.60
2017-07-10T00:40:35.836Z,12.47
2017-07-10T00:43:09.547Z,13.30
2017-07-10T00:45:43.247Z,10.10
2017-07-10T00:48:17.622Z,10.47
2017-07-10T00:50:51.351Z,16.17
2017-07-10T00:53:25.171Z,11.83
2017-07-10T00:55:58.763Z,9.97
2017-07-10T00:58:33.671Z,15.60
2017-07-10T01:01:07.303Z,15.80
2017-07-10T01:03:40.899Z,13.43
2017-07-10T01:06:14.488Z,12.80
2017-07-10T01:08:48.827Z,11.90
2017-07-10T01:11:22.932Z,10.17
2017-07-10T01:13:57.350Z,13.27
2017-07-10T01:16:30.995Z,9.10
2017-07-10T01:19:05.058Z,10.03
2017-07-10T01:21:44.706Z,15.90
2017-07-10T01:24:18.400Z,9.93
2017-07-10T01:26:53.012Z,12.73
2017-07-10T01:29:26.695Z,13.80
2017-07-10T01:32:00.334Z,13.20
2017-07-10T01:34:34.035Z,11.53
2017-07-10T01:37:07.538Z,11.47
2017-07-10T01:39:41.232Z,18.63
2017-07-10T01:42:14.939Z,15.67
2017-07-10T01:44:49.328Z,16.53
2017-07-10T01:47:22.962Z,12.27
2017-07-10T01:49:56.658Z,16.47
2017-07-10T01:52:31.171Z,17.33
2017-07-10T01:55:04.763Z,17.03
2017-07-10T01:57:38.390Z,15.30
2017-07-10T02:00:12.190Z,13.47
2017-07-10T02:02:45.787Z,16.27
2017-07-10T02:05:19.343Z,16.17
2017-07-10T02:07:52.983Z,15.93
2017-07-10T02:10:26.587Z,13.67
2017-07-10T02:13:00.187Z,12.53
2017-07-10T02:15:34.702Z,16.27
2017-07-10T02:18:08.303Z,14.93
2017-07-10T02:20:41.835Z,14.63
2017-07-10T02:23:15.610Z,15.20
2017-07-10T02:25:49.106Z,16.97
2017-07-10T02:28:22.690Z,15.03
2017-07-10T02:30:56.311Z,16.80
2017-07-10T02:33:30.118Z,12.23
2017-07-10T02:36:03.812Z,12.70
2017-07-10T02:38:37.519Z,12.60
2017-07-10T02:41:11.082Z,13.00
2017-07-10T02:43:44.781Z,19.80
2017-07-10T02:46:18.317Z,11.77
2017-07-10T02:48:51.915Z,15.53
2017-07-10T02:51:25.514Z,10.53
2017-07-10T02:53:59.731Z,13.00
2017-07-10T02:56:33.343Z,13.93
2017-07-10T02:59:06.932Z,11.87
2017-07-10T03:01:40.590Z,11.87
2017-07-10T03:04:14.439Z,13.87
2017-07-10T03:06:48.035Z,13.70
2017-07-10T03:09:21.739Z,13.30
2017-07-10T03:11:55.438Z,12.63
2017-07-10T03:14:29.151Z,16.43
2017-07-10T03:17:02.848Z,13.70
2017-07-10T03:19:36.447Z,16.23
2017-07-10T03:22:10.967Z,14.03
2017-07-10T03:24:44.775Z,17.73
2017-07-10T03:27:18.783Z,17.87
2017-07-10T03:29:53.307Z,14.87
2017-07-10T03:32:26.795Z,15.90
2017-07-10T03:35:00.808Z,16.27
2017-07-10T03:37:34.621Z,15.60
2017-07-10T03:40:08.321Z,14.23
2017-07-10T03:42:41.919Z,13.70
2017-07-10T03:45:15.624Z,13.97
2017-07-10T03:47:49.329Z,13.27
2017-07-10T03:50:23.735Z,13.33
2017-07-10T03:52:57.435Z,12.63
2017-07-10T03:55:31.948Z,12.80
2017-07-10T03:58:05.666Z,13.53
2017-07-10T04:00:39.470Z,16.67
2017-07-10T04:03:13.070Z,11.30
2017-07-10T04:05:46.720Z,13.40
2017-07-10T04:08:20.408Z,16.70
2017-07-10T04:10:54.107Z,18.87
2017-07-10T04:13:27.770Z,19.63
2017-07-10T04:16:01.350Z,14.87
2017-07-10T04:18:34.875Z,15.60
2017-07-10T04:21:08.660Z,15.77
2017-07-10T04:23:42.282Z,21.00
2017-07-10T04:26:16.704Z,21.37
2017-07-10T04:28:50.302Z,19.67
2017-07-10T04:31:23.900Z,24.83
2017-07-10T04:33:57.500Z,18.07
2017-07-10T04:36:31.184Z,19.43
2017-07-10T04:39:04.804Z,20.60
2017-07-10T04:41:38.506Z,15.10
2017-07-10T04:44:12.007Z,19.73
2017-07-10T04:46:46.532Z,15.80
2017-07-10T04:49:20.135Z,19.87
2017-07-10T04:51:53.931Z,21.13
2017-07-10T04:54:27.633Z,18.10
2017-07-10T04:57:01.541Z,17.07
2017-07-10T04:59:35.142Z,18.53
2017-07-10T05:02:08.847Z,22.23
2017-07-10T05:04:42.355Z,13.60
2017-07-10T05:07:16.891Z,23.60
2017-07-10T05:09:50.546Z,28.77
2017-07-10T05:12:24.291Z,21.77
2017-07-10T05:14:58.067Z,24.57
2017-07-10T05:17:31.772Z,26.73
2017-07-10T05:20:05.406Z,36.97
2017-07-10T05:22:39.378Z,32.00
2017-07-10T05:25:14.671Z,30.17
2017-07-10T05:27:48.429Z,30.70
2017-07-10T05:30:22.081Z,31.00
2017-07-10T05:32:56.652Z,28.97
2017-07-10T05:35:30.347Z,30.67
2017-07-10T05:38:03.832Z,32.63
2017-07-10T05:40:37.419Z,33.77
2017-07-10T05:43:11.238Z,30.07
2017-07-10T05:45:44.823Z,24.33
2017-07-10T05:48:18.555Z,25.20
2017-07-10T05:50:52.262Z,25.27
2017-07-10T05:53:25.855Z,26.60
2017-07-10T05:55:59.484Z,30.77
2017-07-10T05:58:33.981Z,28.27
2017-07-10T06:01:07.681Z,21.57
2017-07-10T06:03:42.190Z,21.90
2017-07-10T06:06:15.902Z,24.90
2017-07-10T06:08:50.527Z,22.83
2017-07-10T06:11:25.052Z,25.90
2017-07-10T06:13:58.772Z,20.90
2017-07-10T06:16:32.335Z,23.33
2017-07-10T06:19:05.957Z,21.23
2017-07-10T06:21:39.656Z,20.07
2017-07-10T06:24:13.464Z,23.10
2017-07-10T06:26:47.061Z,24.93
2017-07-10T06:29:21.579Z,21.47
2017-07-10T06:31:55.079Z,23.30
2017-07-10T06:34:29.499Z,20.77
2017-07-10T06:37:03.096Z,19.60
2017-07-10T06:39:36.648Z,20.63
2017-07-10T06:42:10.503Z,16.53
2017-07-10T06:44:44.052Z,24.23
2017-07-10T06:47:17.694Z,16.70
2017-07-10T06:49:52.119Z,21.00
2017-07-10T06:52:26.406Z,19.10
2017-07-10T06:55:00.210Z,20.47
2017-07-10T06:57:34.763Z,15.80
2017-07-10T07:00:09.488Z,17.53
2017-07-10T07:02:43.293Z,17.17
2017-07-10T07:05:16.888Z,15.93
2017-07-10T07:07:51.215Z,12.57
2017-07-10T07:10:24.920Z,16.00
2017-07-10T07:12:58.516Z,17.30
2017-07-10T07:15:32.927Z,15.07
2017-07-10T07:18:06.730Z,15.17
2017-07-10T07:20:40.419Z,14.63
2017-07-10T07:23:14.138Z,19.97
2017-07-10T07:25:47.946Z,14.43
2017-07-10T07:28:21.861Z,13.70
2017-07-10T07:30:55.555Z,12.43
2017-07-10T07:33:29.167Z,19.83
2017-07-10T07:36:02.754Z,12.47
2017-07-10T07:38:37.280Z,22.10
2017-07-10T07:41:11.189Z,12.30
2017-07-10T07:43:44.954Z,11.43
2017-07-10T07:46:18.490Z,21.33
2017-07-10T07:48:52.187Z,14.13
2017-07-10T07:51:25.892Z,11.23
2017-07-10T07:53:59.620Z,8.07
2017-07-10T07:56:33.502Z,13.13
2017-07-10T07:59:07.099Z,9.70
2017-07-10T08:01:40.878Z,9.97
2017-07-10T08:04:15.216Z,7.33
2017-07-10T08:06:48.935Z,11.77
2017-07-10T08:09:22.829Z,10.33
2017-07-10T08:11:56.399Z,11.63
2017-07-10T08:14:30.035Z,18.90
2017-07-10T08:17:03.735Z,6.93
2017-07-10T08:19:37.233Z,14.50
2017-07-10T08:22:10.933Z,6.10
2017-07-10T08:24:44.742Z,7.67
2017-07-10T08:27:18.339Z,16.33
2017-07-10T08:29:52.271Z,9.23
2017-07-10T08:32:25.954Z,14.37
2017-07-10T08:34:59.528Z,9.67
2017-07-10T08:37:33.163Z,7.50
2017-07-10T08:40:07.462Z,9.73
2017-07-10T08:42:41.019Z,13.37
2017-07-10T08:45:14.867Z,9.47
2017-07-10T08:47:48.676Z,12.20
2017-07-10T08:50:22.375Z,11.03
2017-07-10T08:52:56.080Z,8.20
2017-07-10T08:55:29.683Z,8.67
2017-07-10T08:58:03.274Z,7.37
2017-07-10T09:00:36.839Z,6.80
2017-07-10T09:03:10.474Z,5.77
2017-07-10T09:05:44.079Z,4.57
2017-07-10T09:08:17.638Z,6.20
2017-07-10T09:10:51.433Z,10.50
2017-07-10T09:13:26.007Z,6.00
2017-07-10T09:16:00.321Z,4.50
2017-07-10T09:18:34.024Z,5.13
2017-07-10T09:21:07.618Z,7.00
2017-07-10T09:23:41.329Z,4.80
2017-07-10T09:26:14.919Z,5.80
2017-07-10T09:28:49.339Z,5.63
2017-07-10T09:31:22.911Z,4.90
2017-07-10T09:33:56.552Z,11.60
2017-07-10T09:36:30.249Z,8.73
2017-07-10T09:39:03.943Z,9.43
2017-07-10T09:41:38.083Z,4.40
2017-07-10T09:44:11.943Z,9.27
2017-07-10T09:46:46.247Z,6.30
2017-07-10T09:49:19.987Z,3.30
2017-07-10T09:51:54.242Z,5.43
2017-07-10T09:54:27.935Z,4.33
2017-07-10T09:57:02.635Z,8.33
2017-07-10T09:59:36.327Z,4.90
2017-07-10T10:02:09.930Z,4.73
2017-07-10T10:04:43.606Z,9.20
2017-07-10T10:07:17.236Z,9.07
2017-07-10T10:09:51.447Z,4.97
2017-07-10T10:12:24.945Z,11.13
2017-07-10T10:14:58.653Z,8.43
2017-07-10T10:17:32.247Z,5.00
2017-07-10T10:20:06.054Z,8.50
2017-07-10T10:22:39.654Z,9.03
2017-07-10T10:25:13.357Z,8.43
2017-07-10T10:27:47.159Z,5.77
2017-07-10T10:30:20.760Z,4.40
2017-07-10T10:32:55.182Z,12.30
2017-07-10T10:35:29.495Z,4.73
2017-07-10T10:38:02.992Z,4.30
2017-07-10T10:40:36.490Z,8.30
2017-07-10T10:43:10.135Z,4.90
2017-07-10T10:45:44.504Z,6.50
2017-07-10T10:48:18.168Z,11.97
2017-07-10T10:50:51.788Z,9.63
2017-07-10T10:53:25.511Z,5.00
2017-07-10T10:55:59.210Z,10.43
2017-07-10T10:58:32.789Z,4.00
2017-07-10T11:01:06.546Z,5.60
2017-07-10T11:03:41.038Z,5.73
2017-07-10T11:06:14.540Z,7.33
2017-07-10T11:08:48.239Z,5.33
2017-07-10T11:11:22.139Z,3.77
2017-07-10T11:13:55.811Z,3.00
2017-07-10T11:16:30.376Z,8.40
2017-07-10T11:19:04.039Z,5.93
2017-07-10T11:21:37.672Z,3.27
2017-07-10T11:24:11.258Z,4.83
2017-07-10T11:26:45.695Z,3.60
2017-07-10T11:29:19.298Z,8.47
2017-07-10T11:31:52.908Z,14.20
2017-07-10T11:34:26.596Z,6.03
2017-07-10T11:37:00.907Z,8.13
2017-07-10T11:39:34.406Z,4.93
2017-07-10T11:42:08.801Z,5.97
2017-07-10T11:44:42.368Z,7.23
2017-07-10T11:47:16.028Z,4.13
2017-07-10T11:49:50.448Z,5.60
2017-07-10T11:52:24.862Z,3.90
2017-07-10T11:54:58.530Z,9.40
2017-07-10T11:57:32.138Z,9.90
2017-07-10T12:00:05.771Z,5.33
2017-07-10T12:02:39.480Z,6.63
2017-07-10T12:05:13.276Z,6.00
2017-07-10T12:07:47.800Z,7.67
2017-07-10T12:10:22.215Z,12.60
2017-07-10T12:12:55.755Z,10.63
2017-07-10T12:15:29.458Z,8.30
2017-07-10T12:18:04.039Z,6.60
2017-07-10T12:20:37.648Z,5.40
2017-07-10T12:23:11.450Z,13.63
2017-07-10T12:25:45.147Z,5.30
2017-07-10T12:28:18.752Z,7.80
2017-07-10T12:30:53.171Z,8.20
2017-07-10T12:33:26.878Z,9.20
2017-07-10T12:36:00.571Z,8.80
2017-07-10T12:38:34.280Z,5.97
2017-07-10T12:41:07.874Z,6.50
2017-07-10T12:43:41.471Z,5.17
2017-07-10T12:46:15.587Z,7.73
2017-07-10T12:48:49.394Z,9.03
2017-07-10T12:51:22.896Z,6.53
2017-07-10T12:53:57.320Z,6.80
2017-07-10T12:56:31.020Z,7.23
2017-07-10T12:59:04.502Z,6.43
2017-07-10T13:01:38.116Z,6.37
2017-07-10T13:04:11.708Z,3.37
2017-07-10T13:06:46.198Z,8.90
2017-07-10T13:09:19.933Z,3.33
2017-07-10T13:11:54.619Z,3.87
2017-07-10T13:14:28.371Z,4.33
2017-07-10T13:17:02.835Z,4.73
2017-07-10T13:19:36.480Z,3.13
2017-07-10T13:22:09.999Z,2.57
2017-07-10T13:24:43.628Z,3.00
2017-07-10T13:27:17.277Z,3.83
2017-07-10T13:29:50.982Z,5.10
2017-07-10T13:32:25.455Z,2.33
2017-07-10T13:34:59.191Z,2.20
2017-07-10T13:37:33.426Z,2.67
2017-07-10T13:40:07.126Z,2.50
2017-07-10T13:42:40.723Z,2.20
2017-07-10T13:45:14.303Z,3.67
2017-07-10T13:47:48.032Z,2.67
2017-07-10T13:50:21.623Z,2.80
2017-07-10T13:52:55.218Z,6.47
2017-07-10T13:55:29.014Z,2.30
2017-07-10T13:58:02.633Z,3.83
2017-07-10T14:00:36.331Z,2.13
2017-07-10T14:03:10.027Z,7.43
2017-07-10T14:05:43.740Z,1.40
2017-07-10T14:08:17.543Z,2.50
2017-07-10T14:10:51.151Z,2.30
2017-07-10T14:13:24.744Z,2.00
2017-07-10T14:15:58.339Z,2.37
2017-07-10T14:18:31.980Z,1.90
2017-07-10T14:21:05.523Z,2.10
2017-07-10T14:23:39.119Z,2.80
2017-07-10T14:26:12.647Z,5.27
2017-07-10T14:28:46.377Z,5.47
2017-07-10T14:31:20.059Z,3.50
2017-07-10T14:33:54.559Z,3.53
2017-07-10T14:36:28.167Z,3.30
2017-07-10T14:39:01.875Z,5.03
2017-07-10T14:41:36.396Z,4.80
2017-07-10T14:44:10.095Z,7.87
2017-07-10T14:46:43.744Z,5.03
2017-07-10T14:49:18.216Z,4.40
2017-07-10T14:51:51.767Z,5.30
2017-07-10T14:54:25.416Z,4.97
2017-07-10T14:56:59.008Z,6.73
2017-07-10T14:59:32.827Z,8.77
2017-07-10T15:02:06.522Z,6.27
2017-07-10T15:04:40.119Z,5.27
2017-07-10T15:07:13.678Z,7.30
2017-07-10T15:09:47.314Z,5.10
2017-07-10T15:12:21.020Z,8.07
2017-07-10T15:14:54.519Z,12.80
2017-07-10T15:17:28.131Z,6.93
2017-07-10T15:20:02.031Z,8.90
2017-07-10T15:22:35.722Z,6.30
2017-07-10T15:25:09.228Z,5.27
2017-07-10T15:27:42.830Z,7.70
2017-07-10T15:30:17.199Z,8.10
2017-07-10T15:32:51.558Z,7.57
2017-07-10T15:35:25.947Z,8.90
2017-07-10T15:37:59.583Z,10.00
2017-07-10T15:40:33.863Z,13.27
2017-07-10T15:43:07.803Z,8.87
2017-07-10T15:45:41.303Z,8.60
2017-07-10T15:48:15.049Z,6.87
2017-07-10T15:50:48.823Z,9.43
2017-07-10T15:53:22.415Z,10.80
2017-07-10T15:55:55.999Z,9.70
2017-07-10T15:58:30.534Z,10.17
2017-07-10T16:01:04.210Z,10.27
2017-07-10T16:03:37.939Z,9.30
2017-07-10T16:06:12.351Z,9.70
2017-07-10T16:08:46.158Z,8.70
2017-07-10T16:11:19.759Z,10.43
2017-07-10T16:13:53.347Z,10.27
2017-07-10T16:16:27.018Z,10.87
2017-07-10T16:19:00.795Z,8.13
2017-07-10T16:21:34.531Z,11.80
2017-07-10T16:24:08.125Z,16.27
2017-07-10T16:26:42.492Z,15.70
2017-07-10T16:29:16.190Z,17.77
2017-07-10T16:31:49.939Z,16.60
2017-07-10T16:34:23.642Z,12.77
2017-07-10T16:36:58.207Z,13.20
2017-07-10T16:39:31.919Z,9.43
2017-07-10T16:42:05.611Z,9.73
2017-07-10T16:44:40.109Z,13.87
2017-07-10T16:47:13.869Z,12.40
2017-07-10T16:49:48.256Z,9.57
2017-07-10T16:52:22.680Z,8.90
2017-07-10T16:54:56.379Z,7.33
2017-07-10T16:57:31.316Z,9.47
2017-07-10T17:00:05.103Z,6.53
2017-07-10T17:02:38.820Z,4.97
2017-07-10T17:05:12.518Z,6.30
2017-07-10T17:07:46.530Z,4.30
2017-07-10T17:10:21.151Z,6.90
2017-07-10T17:12:54.862Z,4.67
2017-07-10T17:15:28.563Z,5.43
2017-07-10T17:18:02.988Z,7.57
2017-07-10T17:20:37.607Z,5.97
2017-07-10T17:23:11.309Z,3.90
2017-07-10T17:25:44.907Z,4.80
2017-07-10T17:28:18.511Z,3.40
2017-07-10T17:30:52.207Z,5.07
2017-07-10T17:33:25.751Z,4.50
2017-07-10T17:35:59.308Z,3.87
2017-07-10T17:38:33.622Z,4.07
2017-07-10T17:41:07.327Z,5.33
2017-07-10T17:43:40.927Z,2.90
2017-07-10T17:46:14.729Z,6.53
2017-07-10T17:48:48.348Z,3.93
2017-07-10T17:51:22.267Z,9.93
2017-07-10T17:53:55.999Z,4.43
2017-07-10T17:56:29.888Z,8.30
2017-07-10T17:59:03.650Z,3.40
2017-07-10T18:01:37.455Z,3.70
2017-07-10T18:04:11.134Z,4.50
2017-07-10T18:06:44.876Z,4.20
2017-07-10T18:09:18.548Z,9.30
2017-07-10T18:11:52.844Z,8.10
2017-07-10T18:14:26.565Z,4.03
2017-07-10T18:17:01.001Z,7.70
2017-07-10T18:19:35.463Z,6.63
2017-07-10T18:22:10.091Z,9.30
2017-07-10T18:24:43.913Z,5.20
2017-07-10T18:27:18.481Z,3.10
2017-07-10T18:29:52.121Z,3.47
2017-07-10T18:32:26.003Z,4.83
2017-07-10T18:34:59.732Z,3.67
2017-07-10T18:37:33.594Z,3.17
2017-07-10T18:40:07.474Z,3.27
2017-07-10T18:42:41.195Z,3.13
2017-07-10T18:45:14.836Z,3.20
2017-07-10T18:47:48.610Z,3.53
2017-07-10T18:50:22.430Z,5.13
2017-07-10T18:52:56.043Z,3.17
2017-07-10T18:55:29.512Z,4.77
2017-07-10T18:58:03.067Z,5.20
2017-07-10T19:00:36.596Z,3.90
2017-07-10T19:03:10.280Z,4.80
2017-07-10T19:05:43.799Z,4.00
2017-07-10T19:08:17.492Z,6.60
2017-07-10T19:10:50.987Z,5.17
2017-07-10T19:13:24.659Z,6.33
2017-07-10T19:15:58.196Z,6.53
2017-07-10T19:18:31.763Z,4.10
2017-07-10T19:21:05.248Z,5.33
2017-07-10T19:23:38.806Z,4.87
2017-07-10T19:26:12.283Z,6.53
2017-07-10T19:28:45.820Z,4.50
2017-07-10T19:31:19.296Z,6.47
2017-07-10T19:33:52.983Z,5.33
2017-07-10T19:36:26.596Z,3.20
2017-07-10T19:39:00.212Z,3.60
2017-07-10T19:41:33.798Z,3.80
2017-07-10T19:44:07.477Z,4.73
2017-07-10T19:46:40.942Z,4.00
2017-07-10T19:49:14.441Z,4.60
2017-07-10T19:51:48.045Z,4.07
2017-07-10T19:54:21.603Z,8.47
2017-07-10T19:56:55.253Z,6.30
2017-07-10T19:59:28.939Z,5.80
2017-07-10T20:02:02.403Z,6.40
2017-07-10T20:04:35.964Z,4.90
2017-07-10T20:07:09.567Z,34.30
2017-07-10T20:09:43.123Z,20.30
2017-07-10T20:12:16.574Z,13.90
2017-07-10T20:14:50.180Z,7.07
2017-07-10T20:17:23.694Z,8.13
2017-07-10T20:19:57.352Z,3.90
2017-07-10T20:22:30.810Z,6.40
2017-07-10T20:25:04.363Z,8.63
2017-07-10T20:27:37.967Z,3.17
2017-07-10T20:30:11.586Z,5.27
2017-07-10T20:32:45.059Z,11.43
2017-07-10T20:35:18.608Z,5.40
2017-07-10T20:37:52.259Z,5.00
2017-07-10T20:40:25.747Z,5.50
2017-07-10T20:42:59.242Z,3.77
2017-07-10T20:45:32.926Z,6.97
2017-07-10T20:48:06.415Z,4.30
2017-07-10T20:50:39.963Z,5.40
2017-07-10T20:53:13.457Z,9.13
2017-07-10T20:55:47.095Z,5.70
2017-07-10T20:58:20.656Z,5.10
2017-07-10T21:00:54.154Z,8.20
2017-07-10T21:03:27.769Z,6.57
2017-07-10T21:06:01.480Z,5.13
2017-07-10T21:08:35.147Z,6.60
2017-07-10T21:11:08.755Z,4.50
2017-07-10T21:13:42.284Z,5.03
2017-07-10T21:16:15.919Z,4.63
2017-07-10T21:18:49.393Z,5.43
2017-07-10T21:21:22.958Z,5.60
2017-07-10T21:23:56.422Z,6.20
2017-07-10T21:26:29.908Z,5.40
2017-07-10T21:29:03.387Z,6.23
2017-07-10T21:31:36.937Z,9.30
2017-07-10T21:34:11.351Z,3.90
2017-07-10T21:36:44.976Z,7.30
2017-07-10T21:39:18.439Z,6.63
2017-07-10T21:41:52.067Z,8.50
2017-07-10T21:44:25.567Z,6.27
2017-07-10T21:46:59.884Z,7.23
2017-07-10T21:49:33.488Z,6.07
2017-07-10T21:52:06.984Z,9.83
2017-07-10T21:54:40.583Z,12.40
2017-07-10T21:57:14.387Z,5.07
2017-07-10T21:59:48.086Z,6.50
2017-07-10T22:02:21.791Z,5.70
2017-07-10T22:04:55.494Z,3.30
2017-07-10T22:07:29.195Z,4.00
2017-07-10T22:10:03.610Z,3.73
2017-07-10T22:12:37.319Z,4.47
2017-07-10T22:15:10.919Z,4.57
2017-07-10T22:17:44.615Z,5.20
2017-07-10T22:20:19.089Z,4.50
2017-07-10T22:22:52.707Z,8.80
2017-07-10T22:25:26.347Z,4.40
2017-07-10T22:28:00.151Z,6.83
2017-07-10T22:30:33.751Z,4.30
2017-07-10T22:33:07.564Z,8.17
2017-07-10T22:35:41.941Z,4.53
2017-07-10T22:38:15.757Z,4.27
2017-07-10T22:40:49.575Z,3.63
2017-07-10T22:43:23.981Z,3.63
2017-07-10T22:45:58.312Z,4.30
2017-07-10T22:48:32.019Z,5.00
2017-07-10T22:51:05.618Z,3.70
2017-07-10T22:53:39.328Z,4.47
2017-07-10T22:56:12.919Z,3.57
2017-07-10T22:58:46.728Z,4.60
2017-07-10T23:01:21.859Z,3.10
2017-07-10T23:03:55.479Z,3.47
2017-07-10T23:06:29.069Z,2.90
2017-07-10T23:09:03.587Z,5.67
2017-07-10T23:11:37.491Z,3.97
2017-07-10T23:14:11.091Z,2.60
2017-07-10T23:16:44.668Z,2.77
2017-07-10T23:19:19.012Z,3.40
2017-07-10T23:21:52.815Z,2.93
2017-07-10T23:24:27.330Z,2.40
2017-07-10T23:27:00.831Z,2.83
2017-07-10T23:29:34.536Z,2.43
2017-07-10T23:32:08.127Z,2.87
2017-07-10T23:34:41.940Z,2.23
2017-07-10T23:37:15.587Z,2.77
2017-07-10T23:39:49.383Z,3.40
2017-07-10T23:42:22.998Z,2.73
2017-07-10T23:44:57.460Z,2.40
2017-07-10T23:47:31.059Z,2.80
2017-07-10T23:50:05.381Z,3.20
2017-07-10T23:52:39.081Z,2.00
2017-07-10T23:55:12.895Z,2.10
2017-07-10T23:57:46.380Z,2.40
